Time;durP1;ratioP1;P1;durP2;ratioP2;P2;SDS_P1;SDS_P2;PMS_P1;PMS_P2;Temp;Humidity;BMP_temperature;BMP_pressure;BME280_temperature;BME280_humidity;BME280_pressure;Samples;Min_cycle;Max_cycle;Signal;HPM_P1;HPM_P2
2022/02/25 00:00:51;;;;;;;1.07;0.70;;;2.50;96.60;;;0.90;91.86;98025.59;4996345;28;20483;-85
2022/02/25 00:03:18;;;;;;;0.73;0.60;;;2.50;96.00;;;0.95;92.69;98028.63;4996696;28;20781;-85
2022/02/25 00:05:45;;;;;;;1.20;0.70;;;2.40;97.60;;;1.06;91.85;98031.03;4997064;28;20439;-86
2022/02/25 00:08:12;;;;;;;0.63;0.63;;;2.50;97.30;;;0.85;92.04;97999.44;5017760;28;20443;-86
2022/02/25 00:10:40;;;;;;;0.97;0.87;;;2.40;97.30;;;0.31;92.62;97919.69;5002351;28;20545;-84
2022/02/25 00:13:07;;;;;;;1.07;0.73;;;2.50;98.50;;;1.04;91.98;98025.03;5017777;28;20442;-85
2022/02/25 00:15:35;;;;;;;1.53;0.90;;;2.50;97.30;;;1.05;92.04;98029.38;5017362;28;20470;-86
2022/02/25 00:18:02;;;;;;;1.03;0.90;;;2.60;97.20;;;0.89;91.10;97998.13;5018213;28;20436;-87
2022/02/25 00:20:29;;;;;;;1.80;0.77;;;2.60;95.00;;;0.97;91.39;98021.31;5018104;28;20475;-86
2022/02/25 00:22:56;;;;;;;1.60;0.90;;;2.60;95.30;;;0.95;91.82;98045.44;5017790;28;20439;-87
2022/02/25 00:25:23;;;;;;;1.37;1.27;;;2.50;95.60;;;1.06;91.21;98047.00;5016636;28;20519;-86
2022/02/25 00:27:50;;;;;;;2.70;1.00;;;2.60;95.70;;;1.05;91.29;98029.38;5000481;28;20490;-86
2022/02/25 00:30:17;;;;;;;1.60;1.23;;;2.60;95.20;;;1.04;91.09;98017.06;4999445;28;20542;-84
2022/02/25 00:32:45;;;;;;;1.30;1.20;;;2.60;95.30;;;0.89;91.19;97999.97;5017355;28;20463;-86
2022/02/25 00:35:12;;;;;;;1.20;0.90;;;2.60;95.20;;;1.09;90.62;98035.22;4999986;28;20519;-85
2022/02/25 00:37:39;;;;;;;3.70;1.00;;;2.60;94.50;;;1.08;91.31;98047.69;5017067;28;20451;-84
2022/02/25 00:40:09;;;;;;;2.13;1.40;;;2.60;95.20;;;0.69;90.77;97986.84;5015573;28;20471;-83
2022/02/25 00:42:36;;;;;;;4.50;1.30;;;2.60;95.10;;;1.01;90.86;98030.69;4999770;28;20439;-84
2022/02/25 00:45:04;;;;;;;1.20;1.20;;;2.60;94.40;;;0.81;90.44;98017.53;5000382;28;20875;-88
2022/02/25 00:47:31;;;;;;;1.77;1.67;;;2.60;94.00;;;1.04;90.78;98049.00;5016875;28;20487;-85
2022/02/25 00:50:00;;;;;;;1.57;1.30;;;2.60;94.30;;;0.97;91.22;98047.91;4999638;28;20467;-85
2022/02/25 00:52:27;;;;;;;1.40;1.30;;;2.50;95.30;;;0.80;91.74;98039.78;5016634;28;20434;-85
2022/02/25 00:54:54;;;;;;;1.30;1.20;;;2.40;95.90;;;0.83;91.69;98058.13;4999158;28;20471;-84
2022/02/25 00:57:21;;;;;;;1.67;1.50;;;2.30;96.10;;;0.81;91.53;98054.75;5016563;28;20518;-85
2022/02/25 00:59:48;;;;;;;1.80;1.70;;;2.30;95.80;;;0.70;92.01;98047.03;5016007;28;20566;-85
2022/02/25 01:02:17;;;;;;;1.97;1.33;;;2.30;96.30;;;0.67;91.90;98064.13;4999267;28;20515;-85
2022/02/25 01:04:46;;;;;;;1.93;1.57;;;2.20;96.10;;;0.64;91.48;98052.94;5015334;28;20443;-86
2022/02/25 01:07:15;;;;;;;2.67;1.77;;;2.20;95.50;;;0.67;91.76;98071.25;5016232;28;20554;-87
2022/02/25 01:09:42;;;;;;;1.97;1.83;;;2.20;95.90;;;0.04;91.26;97971.91;5017097;28;20526;-85
2022/02/25 01:12:10;;;;;;;3.10;2.10;;;2.20;95.40;;;-0.18;90.66;97936.81;5017093;28;20478;-86
2022/02/25 01:14:38;;;;;;;3.43;2.33;;;2.20;94.40;;;0.65;90.57;98067.91;5017487;28;20436;-90
2022/02/25 01:17:05;;;;;;;1.77;1.67;;;2.20;94.20;;;0.69;90.22;98077.28;5001210;28;20450;-90
2022/02/25 01:19:32;;;;;;;2.27;2.07;;;2.20;93.50;;;0.70;89.84;98085.09;4999164;28;20467;-85
2022/02/25 01:21:59;;;;;;;3.03;2.73;;;2.20;93.00;;;0.72;89.63;98095.59;5017056;28;20526;-85
2022/02/25 01:24:27;;;;;;;2.23;2.03;;;2.20;92.70;;;0.77;88.50;98101.28;4999241;28;20438;-85
2022/02/25 01:26:54;;;;;;;2.03;1.83;;;2.30;91.30;;;0.55;88.50;98071.50;5016568;28;20430;-86
2022/02/25 01:29:21;;;;;;;1.87;1.73;;;2.30;91.30;;;0.72;88.25;98098.25;5016631;28;20436;-85
2022/02/25 01:31:49;;;;;;;2.63;2.17;;;2.30;91.10;;;0.65;89.47;98118.44;5017723;28;20506;-84
2022/02/25 01:34:17;;;;;;;2.00;1.80;;;2.20;92.00;;;0.55;88.69;98100.75;5018438;28;20443;-87
2022/02/25 01:36:44;;;;;;;2.10;1.83;;;2.20;91.90;;;0.60;89.39;98102.09;5002053;28;20440;-88
2022/02/25 01:39:11;;;;;;;3.40;2.17;;;2.20;92.10;;;0.56;88.81;98102.41;5019759;28;20435;-86
2022/02/25 01:41:39;;;;;;;3.00;2.00;;;2.10;91.80;;;0.59;87.93;98124.38;5014830;28;20526;-85
2022/02/25 01:44:16;;;;;;;2.53;2.27;;;2.10;91.20;;;0.51;88.55;98112.63;4998229;28;20518;-88
2022/02/25 01:46:47;;;;;;;2.87;2.40;;;2.10;91.80;;;0.50;89.00;98129.56;4997523;28;20439;-84
2022/02/25 01:49:14;;;;;;;1.77;1.63;;;2.00;92.10;;;0.31;89.38;98106.59;4997983;28;20442;-85
2022/02/25 01:51:41;;;;;;;2.83;2.50;;;2.00;92.50;;;0.50;89.14;98140.22;4998169;28;20541;-82
2022/02/25 01:54:08;;;;;;;4.27;2.70;;;2.00;92.70;;;0.40;90.07;98137.59;5014875;28;20990;-81
2022/02/25 01:56:36;;;;;;;5.57;2.70;;;2.00;92.90;;;0.44;90.11;98147.94;5014343;28;20513;-82
2022/02/25 01:59:04;;;;;;;3.47;2.37;;;2.00;93.60;;;0.28;90.31;98144.09;5014964;28;20435;-83
2022/02/25 02:01:32;;;;;;;2.27;2.07;;;1.90;93.80;;;0.36;90.52;98161.97;5014955;28;20558;-82
2022/02/25 02:03:59;;;;;;;3.50;2.93;;;1.90;93.80;;;0.37;90.22;98163.63;4998065;28;20486;-83
2022/02/25 02:06:26;;;;;;;3.20;2.90;;;1.90;94.00;;;0.06;90.85;98143.50;4999019;28;20981;-84
2022/02/25 02:08:53;;;;;;;3.07;2.83;;;1.90;94.60;;;0.25;91.22;98163.84;4999744;28;20443;-84
2022/02/25 02:11:29;;;;;;;3.57;2.40;;;1.80;95.20;;;0.02;91.81;98138.59;4999775;28;20974;-84
2022/02/25 02:13:56;;;;;;;3.13;2.83;;;1.80;96.30;;;0.22;91.66;98176.59;4999165;28;20482;-83
2022/02/25 02:16:25;;;;;;;3.30;2.93;;;1.80;95.90;;;0.11;91.65;98159.81;5015116;28;20440;-85
2022/02/25 02:18:52;;;;;;;4.17;3.13;;;1.80;96.00;;;0.14;91.59;98172.00;5016297;28;20522;-84
2022/02/25 02:21:20;;;;;;;3.70;2.60;;;1.80;95.90;;;0.32;90.90;98181.84;5017052;28;20443;-86
2022/02/25 02:23:49;;;;;;;2.90;2.70;;;1.80;94.80;;;0.27;91.03;98183.13;5014871;28;20459;-86
2022/02/25 02:26:16;;;;;;;4.70;2.47;;;1.80;94.70;;;0.04;89.96;98131.31;5037067;28;20444;-84
2022/02/25 02:28:43;;;;;;;4.17;2.90;;;1.90;93.10;;;0.52;89.73;98198.56;5000861;28;20439;-84
2022/02/25 02:31:10;;;;;;;3.83;2.97;;;2.00;93.00;;;0.60;89.46;98195.19;5015331;28;21042;-83
2022/02/25 02:33:37;;;;;;;7.00;3.00;;;2.10;92.90;;;0.61;88.44;98199.50;5014576;28;20538;-85
2022/02/25 02:36:05;;;;;;;2.70;2.50;;;2.20;91.30;;;0.53;87.92;98209.06;5015312;28;20435;-85
2022/02/25 02:38:32;;;;;;;2.53;2.30;;;2.10;91.10;;;0.48;88.01;98206.00;5013258;28;20546;-82
2022/02/25 02:41:00;;;;;;;3.03;2.53;;;2.00;90.90;;;0.35;88.48;98221.44;5014934;28;20903;-81
2022/02/25 02:43:27;;;;;;;2.57;2.37;;;1.90;91.50;;;0.31;87.93;98214.75;4997259;28;20439;-82
2022/02/25 02:45:54;;;;;;;3.50;2.80;;;1.90;91.20;;;0.06;87.56;98183.34;5014012;28;20434;-78
2022/02/25 02:48:22;;;;;;;3.37;2.63;;;1.90;90.50;;;0.15;87.81;98202.91;5013833;28;20478;-79
2022/02/25 02:50:49;;;;;;;3.10;2.50;;;1.80;90.70;;;0.27;87.72;98222.16;4996119;28;20535;-79
2022/02/25 02:53:16;;;;;;;2.80;2.33;;;1.80;90.80;;;0.30;87.82;98226.34;4996456;28;20875;-80
2022/02/25 02:55:44;;;;;;;3.70;2.80;;;1.80;90.70;;;0.17;87.57;98232.81;5012531;28;20440;-79
2022/02/25 02:58:13;;;;;;;2.23;2.03;;;1.80;90.80;;;0.20;88.34;98234.34;5014155;28;20606;-81
2022/02/25 03:00:43;;;;;;;2.60;2.40;;;1.70;91.30;;;0.14;88.38;98227.78;5014043;28;20530;-82
2022/02/25 03:03:11;;;;;;;4.13;2.60;;;1.70;91.20;;;0.15;88.21;98245.41;4996773;28;20467;-81
2022/02/25 03:05:39;;;;;;;2.47;2.27;;;1.70;91.30;;;0.18;87.86;98244.31;5013918;28;20451;-80
2022/02/25 03:08:06;;;;;;;2.40;2.20;;;1.70;91.10;;;0.25;87.68;98248.03;5013761;28;20519;-79
2022/02/25 03:10:34;;;;;;;2.90;2.40;;;1.80;90.80;;;0.20;87.48;98229.88;5014403;28;20470;-76
2022/02/25 03:13:03;;;;;;;3.33;2.60;;;1.80;90.50;;;0.30;87.58;98232.50;5013787;28;20454;-82
2022/02/25 03:15:32;;;;;;;3.27;2.50;;;1.90;90.80;;;0.12;87.73;98224.44;5012853;28;20456;-82
2022/02/25 03:18:00;;;;;;;3.40;2.60;;;1.80;90.50;;;0.31;87.93;98249.28;5012578;28;20441;-82
2022/02/25 03:20:27;;;;;;;3.50;2.60;;;1.90;90.70;;;0.30;87.48;98252.94;5013671;28;20919;-81
2022/02/25 03:22:55;;;;;;;3.77;2.57;;;1.80;90.60;;;0.22;87.63;98248.34;5012979;28;20527;-83
2022/02/25 03:25:22;;;;;;;2.47;2.27;;;1.80;91.30;;;0.35;87.42;98253.34;5013479;28;20447;-82
2022/02/25 03:27:49;;;;;;;2.77;2.43;;;1.80;90.60;;;0.36;86.98;98263.84;5013855;28;20442;-83
2022/02/25 03:30:17;;;;;;;4.80;2.43;;;1.90;90.30;;;0.22;87.27;98258.97;4997333;28;20450;-81
2022/02/25 03:32:46;;;;;;;3.87;2.67;;;1.80;90.20;;;0.10;86.86;98250.34;4996121;28;20443;-81
2022/02/25 03:35:14;;;;;;;3.83;2.13;;;1.80;90.10;;;0.19;87.44;98268.06;4996503;28;20454;-82
2022/02/25 03:37:42;;;;;;;2.80;2.10;;;1.70;90.40;;;0.12;87.34;98277.59;5014419;28;20432;-82
2022/02/25 03:40:11;;;;;;;2.57;2.03;;;1.70;90.30;;;0.16;87.32;98284.28;5015526;28;20467;-81
2022/02/25 03:42:38;;;;;;;4.37;2.80;;;1.70;90.50;;;0.35;86.72;98293.22;5018135;28;20505;-83
2022/02/25 03:45:08;;;;;;;3.87;2.73;;;1.80;90.10;;;0.32;86.05;98297.00;5000546;28;20445;-81
2022/02/25 03:47:36;;;;;;;2.83;2.60;;;1.90;88.90;;;0.37;85.55;98292.09;5020472;28;20514;-81
2022/02/25 03:50:07;;;;;;;4.30;2.90;;;1.90;89.00;;;0.39;86.41;98302.59;5017820;28;20474;-82
2022/02/25 03:52:34;;;;;;;5.57;2.50;;;1.90;88.80;;;0.49;85.81;98314.03;5000040;28;20518;-82
2022/02/25 03:55:01;;;;;;;3.63;2.97;;;1.90;88.90;;;0.51;85.80;98306.75;5017439;28;20470;-81
2022/02/25 03:57:28;;;;;;;2.70;2.50;;;2.00;88.70;;;0.60;84.83;98317.50;5017348;28;20570;-83
2022/02/25 03:59:55;;;;;;;3.93;2.43;;;2.10;86.70;;;0.60;84.76;98317.50;4999560;28;20439;-82
2022/02/25 04:02:22;;;;;;;2.60;2.40;;;2.10;86.10;;;0.66;83.86;98319.56;5000039;28;20526;-82
2022/02/25 04:04:49;;;;;;;4.90;2.43;;;2.20;85.10;;;0.77;83.62;98319.41;5015901;28;20435;-82
2022/02/25 04:07:18;;;;;;;3.73;2.03;;;2.20;85.10;;;0.72;83.36;98327.00;5017132;28;20467;-82
2022/02/25 04:09:45;;;;;;;3.20;1.90;;;2.20;84.60;;;0.71;83.66;98327.97;5017421;28;20435;-85
2022/02/25 04:12:12;;;;;;;8.43;2.20;;;2.30;84.50;;;0.74;83.31;98334.81;5005146;28;20532;-84
2022/02/25 04:14:39;;;;;;;4.47;2.10;;;2.20;84.00;;;0.73;83.20;98343.78;5007969;28;21022;-83
2022/02/25 04:17:06;;;;;;;2.60;1.90;;;2.30;83.80;;;0.73;82.70;98336.66;5000178;28;20435;-83
2022/02/25 04:19:33;;;;;;;3.77;2.20;;;2.20;83.70;;;0.72;82.78;98345.63;4999810;28;20431;-83
2022/02/25 04:22:00;;;;;;;4.67;1.70;;;2.20;83.70;;;0.65;82.72;98349.81;5017603;28;20471;-83
2022/02/25 04:24:29;;;;;;;4.90;2.47;;;2.20;83.10;;;0.71;82.57;98351.91;5001092;28;20939;-84
2022/02/25 04:26:56;;;;;;;5.00;2.20;;;2.20;83.60;;;0.66;82.69;98354.16;5024280;28;20441;-84
2022/02/25 04:29:23;;;;;;;3.87;2.00;;;2.20;83.40;;;0.72;82.32;98358.91;5007935;28;20486;-83
2022/02/25 04:31:50;;;;;;;4.50;2.23;;;2.20;82.90;;;0.39;82.59;98306.06;5021858;28;20467;-84
2022/02/25 04:34:17;;;;;;;3.10;2.00;;;2.20;83.70;;;0.60;82.51;98370.69;5017839;28;20478;-84
2022/02/25 04:36:45;;;;;;;2.80;2.33;;;2.10;82.40;;;0.12;81.93;98282.91;5015326;28;20525;-84
2022/02/25 04:39:13;;;;;;;2.10;1.90;;;2.10;82.10;;;0.59;81.97;98363.69;5016811;28;20907;-83
2022/02/25 04:41:42;;;;;;;2.20;2.00;;;2.10;81.90;;;0.21;82.56;98334.38;5016888;28;20483;-82
2022/02/25 04:44:09;;;;;;;3.40;2.33;;;2.00;82.30;;;0.46;82.00;98375.47;5015159;28;20862;-83
2022/02/25 04:46:40;;;;;;;2.30;2.10;;;2.00;81.90;;;0.28;82.60;98375.34;4999607;28;20443;-83
2022/02/25 04:49:07;;;;;;;6.93;2.70;;;1.90;82.30;;;0.16;83.25;98372.00;4998773;28;20447;-85
2022/02/25 04:51:35;;;;;;;4.90;2.97;;;1.80;83.60;;;0.20;84.01;98385.84;4998621;28;20460;-86
2022/02/25 04:54:02;;;;;;;2.50;2.30;;;1.70;85.00;;;0.04;83.74;98391.72;5016726;28;20427;-84
2022/02/25 04:56:29;;;;;;;3.87;2.40;;;1.60;84.60;;;-0.52;83.74;98314.38;5016874;28;20959;-85
2022/02/25 04:58:57;;;;;;;4.70;2.83;;;1.50;85.20;;;-0.13;84.87;98385.28;5016206;28;20523;-85
2022/02/25 05:01:24;;;;;;;4.67;2.87;;;1.50;87.30;;;-0.22;85.52;98397.56;4998807;28;20530;-84
2022/02/25 05:03:51;;;;;;;3.40;3.10;;;1.40;87.70;;;-0.12;86.16;98398.41;5015124;28;20487;-84
2022/02/25 05:06:19;;;;;;;3.30;2.90;;;1.40;89.50;;;-0.09;86.20;98413.22;5016723;28;20915;-81
2022/02/25 05:08:46;;;;;;;4.50;3.17;;;1.40;88.80;;;-0.09;85.81;98408.75;4998726;28;20456;-83
2022/02/25 05:11:13;;;;;;;4.00;2.90;;;1.50;88.20;;;-0.21;86.57;98412.53;5015958;28;20495;-84
2022/02/25 05:13:40;;;;;;;3.10;2.80;;;1.40;89.50;;;-0.21;86.07;98421.31;4998785;28;20506;-83
2022/02/25 05:21:38;;;;;;;4.17;3.77;;;1.20;90.30;;;-0.36;87.14;98426.19;4999619;28;20957;-84
2022/02/25 05:24:05;;;;;;;3.27;2.97;;;1.20;90.40;;;-0.44;87.73;98431.31;5016081;28;20439;-84
2022/02/25 05:26:32;;;;;;;3.77;3.37;;;1.10;90.90;;;-0.52;87.58;98428.50;4999251;28;20451;-85
2022/02/25 05:28:59;;;;;;;10.47;4.27;;;1.10;90.90;;;-0.45;87.44;98432.28;4999565;28;20432;-84
2022/02/25 05:31:28;;;;;;;3.77;3.40;;;1.10;90.90;;;-0.34;87.17;98440.16;4999115;28;20514;-85
2022/02/25 05:33:55;;;;;;;4.03;3.63;;;1.20;90.80;;;-0.29;86.85;98448.56;4998326;28;20473;-83
2022/02/25 05:36:22;;;;;;;6.07;4.90;;;1.20;90.30;;;-0.23;86.40;98443.66;4998208;28;20448;-82
2022/02/25 05:38:49;;;;;;;4.47;3.80;;;1.30;89.70;;;-0.31;86.31;98452.31;5015531;28;21050;-82
2022/02/25 05:41:17;;;;;;;6.27;4.50;;;1.30;89.30;;;-0.35;87.07;98465.03;5015977;28;20450;-84
2022/02/25 05:43:44;;;;;;;9.10;4.20;;;1.20;90.20;;;-0.58;86.74;98446.63;5014406;28;20498;-83
2022/02/25 05:46:11;;;;;;;12.97;5.17;;;1.10;90.20;;;-0.44;87.01;98457.88;4997668;28;20554;-83
2022/02/25 05:48:40;;;;;;;6.47;4.03;;;1.10;90.30;;;-0.59;87.20;98466.19;5015568;28;20463;-82
2022/02/25 05:51:07;;;;;;;3.80;3.47;;;1.00;90.30;;;-0.47;86.63;98463.47;5015224;28;20923;-83
2022/02/25 05:53:34;;;;;;;5.07;4.20;;;1.00;90.20;;;-0.58;87.12;98477.66;5016136;28;20546;-83
2022/02/25 05:56:01;;;;;;;7.27;3.77;;;1.00;90.10;;;-0.64;87.19;98476.38;5015684;28;20519;-84
2022/02/25 05:58:28;;;;;;;5.83;4.00;;;0.90;90.30;;;-0.70;87.29;98474.25;5015960;28;20442;-81
2022/02/25 06:00:55;;;;;;;4.43;3.93;;;0.90;90.60;;;-0.64;86.92;98468.41;5016593;28;20439;-83
2022/02/25 06:03:22;;;;;;;4.40;3.67;;;1.00;90.00;;;-0.56;86.77;98473.06;5015283;28;20793;-85
2022/02/25 06:05:51;;;;;;;3.77;3.47;;;1.00;90.00;;;-0.57;86.37;98469.56;4999957;28;20909;-86
2022/02/25 06:08:18;;;;;;;4.57;3.53;;;1.00;89.50;;;-0.58;85.47;98462.56;5022662;28;20503;-88
2022/02/25 06:10:45;;;;;;;3.50;3.20;;;1.00;88.60;;;-0.65;86.00;98472.03;5017160;28;20478;-87
2022/02/25 06:13:12;;;;;;;4.60;3.10;;;1.00;88.00;;;-0.90;85.72;98437.00;5018747;28;20460;-85
2022/02/25 06:15:39;;;;;;;5.40;4.10;;;1.00;87.80;;;-0.55;85.55;98503.94;5023470;28;20440;-76
2022/02/25 06:18:06;;;;;;;4.60;2.77;;;1.00;88.50;;;-0.51;86.00;98507.19;5014482;28;20452;-78
2022/02/25 06:20:33;;;;;;;4.87;3.17;;;1.00;88.30;;;-0.52;85.92;98502.84;4996504;28;20453;-77
2022/02/25 06:23:03;;;;;;;6.50;3.60;;;1.00;89.10;;;-0.54;85.42;98510.94;4996816;28;20436;-78
2022/02/25 06:25:31;;;;;;;5.20;3.70;;;1.00;88.10;;;-1.03;85.88;98436.38;4996487;28;20443;-77
2022/02/25 06:27:58;;;;;;;4.73;3.47;;;1.00;87.60;;;-0.56;85.61;98507.56;5014335;28;20535;-77
2022/02/25 06:30:25;;;;;;;3.50;2.93;;;1.00;87.70;;;-0.57;85.36;98512.03;4996511;28;20447;-78
2022/02/25 06:32:52;;;;;;;4.23;3.77;;;1.00;87.40;;;-0.43;85.60;98507.34;5014202;28;20550;-77
2022/02/25 06:35:19;;;;;;;4.17;2.90;;;1.10;88.60;;;-0.30;85.55;98518.59;4980084;28;20781;-76
2022/02/25 06:37:46;;;;;;;5.60;3.10;;;1.20;88.30;;;-0.19;84.83;98524.78;4996637;28;20819;-78
2022/02/25 06:40:14;;;;;;;3.40;3.10;;;1.30;87.80;;;-0.08;84.71;98535.28;4996152;28;20505;-77
2022/02/25 06:42:42;;;;;;;5.63;3.70;;;1.40;87.40;;;-0.11;83.70;98532.06;5014199;28;20443;-76
2022/02/25 06:45:09;;;;;;;4.50;2.70;;;1.40;85.10;;;-0.23;84.61;98528.66;4996403;28;20474;-77
2022/02/25 06:47:37;;;;;;;5.03;3.27;;;1.30;85.90;;;-0.14;84.35;98533.19;5014638;28;20529;-78
2022/02/25 06:50:06;;;;;;;5.17;3.67;;;1.40;85.70;;;-0.10;83.69;98533.75;4996259;28;20462;-78
2022/02/25 06:52:34;;;;;;;7.40;4.23;;;1.40;85.10;;;-0.08;83.10;98527.31;5013950;28;20475;-80
2022/02/25 06:55:01;;;;;;;4.00;3.17;;;1.50;84.20;;;-0.10;83.36;98528.44;5014191;28;20486;-77
2022/02/25 06:57:30;;;;;;;8.87;4.30;;;1.40;84.30;;;-0.02;83.26;98528.59;5013972;28;20486;-78
2022/02/25 06:59:56;;;;;;;6.67;2.80;;;1.50;83.90;;;-0.06;82.92;98535.16;4996471;28;20522;-78
2022/02/25 07:02:25;;;;;;;8.40;3.83;;;1.50;83.10;;;-0.03;83.11;98534.88;5014218;28;20471;-77
2022/02/25 07:04:52;;;;;;;5.40;3.10;;;1.50;83.60;;;-0.15;83.13;98532.34;5013986;28;20466;-77
2022/02/25 07:07:19;;;;;;;4.47;2.90;;;1.40;83.00;;;-0.03;83.04;98543.72;5013690;28;20440;-77
2022/02/25 07:09:46;;;;;;;5.83;3.70;;;1.50;83.30;;;-0.04;83.05;98542.03;4996833;28;20539;-77
2022/02/25 07:12:12;;;;;;;8.03;4.00;;;1.50;83.00;;;0.03;82.66;98549.44;4996352;28;20473;-78
2022/02/25 07:14:41;;;;;;;3.63;3.07;;;1.50;82.50;;;-0.12;82.65;98520.59;5014592;28;20978;-78
2022/02/25 07:17:08;;;;;;;5.07;3.07;;;1.50;82.40;;;0.02;82.77;98559.25;5017686;28;20518;-79
2022/02/25 07:19:35;;;;;;;6.13;3.40;;;1.50;82.40;;;0.04;82.45;98551.13;5017871;28;20435;-78
2022/02/25 07:22:02;;;;;;;6.83;4.17;;;1.60;82.70;;;0.10;82.90;98550.59;5000271;28;20606;-79
2022/02/25 07:24:29;;;;;;;6.10;4.00;;;1.60;83.00;;;0.16;82.17;98558.03;5017980;28;20455;-79
2022/02/25 07:26:56;;;;;;;7.80;3.90;;;1.70;82.00;;;0.23;82.42;98556.53;5017449;28;20522;-77
2022/02/25 07:29:23;;;;;;;8.43;4.20;;;1.70;83.60;;;0.37;83.98;98551.78;5016638;28;20462;-84
2022/02/25 07:31:51;;;;;;;9.50;5.43;;;1.80;85.20;;;0.39;82.04;98568.44;5018027;28;20533;-82
2022/02/25 07:34:18;;;;;;;5.13;4.17;;;1.80;82.50;;;0.57;83.73;98571.25;5018037;28;20447;-79
2022/02/25 07:36:45;;;;;;;6.87;4.10;;;1.90;86.20;;;0.67;82.67;98563.28;5017820;28;20462;-82
2022/02/25 07:39:12;;;;;;;7.60;4.40;;;2.10;84.70;;;0.78;80.86;98571.16;5000514;28;20437;-80
2022/02/25 07:41:39;;;;;;;6.13;4.00;;;2.30;81.40;;;1.06;83.46;98562.44;4999874;28;20435;-82
2022/02/25 07:44:06;;;;;;;6.60;3.47;;;2.40;87.30;;;0.95;80.48;98566.09;4999555;28;20848;-81
2022/02/25 07:46:33;;;;;;;9.50;5.00;;;2.40;80.10;;;1.30;81.51;98575.34;5017741;28;20518;-81
2022/02/25 07:49:01;;;;;;;8.43;4.73;;;2.70;82.90;;;0.91;79.46;98572.69;5016288;28;20438;-82
2022/02/25 07:51:28;;;;;;;6.67;4.20;;;2.50;78.70;;;0.90;79.07;98576.34;5006337;28;20475;-80
2022/02/25 07:53:56;;;;;;;8.00;3.60;;;2.40;78.80;;;0.96;78.76;98586.41;5009545;28;21022;-80
2022/02/25 07:56:24;;;;;;;11.00;4.07;;;2.50;78.60;;;0.87;79.52;98592.59;5010704;28;20432;-80
2022/02/25 07:58:51;;;;;;;8.40;3.90;;;2.40;78.90;;;0.84;78.63;98564.44;5000152;28;20471;-79
2022/02/25 08:01:17;;;;;;;9.13;3.90;;;2.50;78.60;;;1.02;78.95;98582.34;5017093;28;20470;-81
2022/02/25 08:03:44;;;;;;;7.63;3.53;;;2.50;78.40;;;1.01;78.97;98596.63;5017218;28;20439;-74
2022/02/25 08:06:13;;;;;;;6.57;3.33;;;2.50;78.40;;;1.21;78.50;98608.94;5017703;28;20522;-84
2022/02/25 08:08:40;;;;;;;5.10;3.67;;;2.60;78.40;;;1.33;77.72;98606.16;4999833;28;20498;-82
2022/02/25 08:11:08;;;;;;;10.40;3.33;;;2.80;78.10;;;1.44;77.47;98599.81;5017831;28;20474;-81
2022/02/25 08:13:35;;;;;;;5.80;3.70;;;2.90;77.70;;;1.38;77.33;98610.06;5018229;28;20494;-79
2022/02/25 08:16:01;;;;;;;6.40;3.53;;;2.90;77.20;;;1.28;77.23;98609.22;5017447;28;20497;-82
2022/02/25 08:18:28;;;;;;;9.10;4.13;;;2.80;77.00;;;1.48;76.67;98603.91;4999094;28;20883;-84
2022/02/25 08:20:55;;;;;;;10.33;3.20;;;2.90;76.80;;;1.47;76.33;98608.38;5016988;28;20450;-81
2022/02/25 08:23:24;;;;;;;7.57;3.50;;;3.00;76.50;;;1.80;75.24;98597.38;4999765;28;20531;-83
2022/02/25 08:25:51;;;;;;;5.60;3.37;;;3.20;76.10;;;2.19;73.92;98610.53;4999577;28;20474;-83
2022/02/25 08:28:18;;;;;;;6.40;3.27;;;3.50;75.30;;;2.40;72.91;98617.47;5019340;28;20474;-83
2022/02/25 08:30:46;;;;;;;9.60;2.97;;;3.80;74.20;;;2.25;72.42;98611.78;5021935;28;20458;-85
2022/02/25 08:33:13;;;;;;;5.03;3.07;;;3.70;73.20;;;2.44;71.38;98610.84;5001054;28;20463;-82
2022/02/25 08:35:43;;;;;;;4.23;2.90;;;3.90;72.90;;;2.40;72.02;98617.47;5000418;28;20498;-79
2022/02/25 08:38:11;;;;;;;10.10;3.27;;;3.90;72.70;;;2.39;71.94;98613.13;5017551;28;20444;-84
2022/02/25 08:40:41;;;;;;;11.30;3.40;;;3.90;72.60;;;2.43;71.83;98619.00;5016593;28;20543;-74
2022/02/25 08:43:08;;;;;;;6.70;3.10;;;3.90;72.70;;;2.49;71.44;98619.25;5016621;28;20444;-81
2022/02/25 08:45:35;;;;;;;8.23;2.73;;;4.00;72.40;;;2.34;71.19;98610.91;5016488;28;20447;-80
2022/02/25 08:48:02;;;;;;;7.07;3.13;;;3.90;72.10;;;2.21;71.42;98615.75;5016359;28;20439;-79
2022/02/25 08:50:29;;;;;;;5.03;2.87;;;3.80;72.10;;;2.16;72.04;98613.50;4998595;28;20431;-79
2022/02/25 08:52:56;;;;;;;8.80;2.77;;;3.70;72.20;;;2.20;71.10;98617.59;4998885;28;20466;-79
2022/02/25 08:55:25;;;;;;;4.37;2.10;;;3.70;72.10;;;2.18;70.53;98622.19;5001550;28;20436;-81
2022/02/25 08:57:54;;;;;;;5.00;2.50;;;3.60;71.50;;;2.17;70.71;98615.19;5021730;28;20973;-77
2022/02/25 09:00:23;;;;;;;6.67;2.50;;;3.60;71.50;;;2.13;69.46;98616.47;5012398;28;20491;-83
2022/02/25 09:02:52;;;;;;;7.07;3.10;;;3.60;70.50;;;2.25;70.57;98607.31;5012923;28;20455;-81
2022/02/25 09:05:21;;;;;;;3.70;2.90;;;3.70;71.30;;;2.39;70.51;98597.97;5006480;28;20526;-76
2022/02/25 09:07:49;;;;;;;2.90;2.10;;;3.80;71.30;;;2.45;67.15;98585.84;5003170;28;20838;-81
2022/02/25 09:10:17;;;;;;;4.60;2.00;;;3.90;68.90;;;2.50;67.07;98588.94;5006682;28;20450;-85
2022/02/25 09:12:46;;;;;;;6.67;2.33;;;4.00;68.60;;;2.61;67.44;98595.88;5016742;28;20829;-72
2022/02/25 09:15:20;;;;;;;7.30;2.10;;;4.10;68.60;;;2.68;67.63;98606.81;4997665;28;20799;-73
2022/02/25 09:17:47;;;;;;;5.63;1.90;;;4.10;68.60;;;2.77;66.10;98613.06;5020200;28;20461;-81
2022/02/25 09:20:14;;;;;;;5.77;2.20;;;4.20;67.30;;;2.90;64.38;98612.69;5024028;28;20483;-74
2022/02/25 09:22:41;;;;;;;3.43;1.40;;;4.30;66.30;;;2.97;64.56;98611.09;5030109;28;20443;-81
2022/02/25 09:25:09;;;;;;;7.13;2.47;;;4.40;65.60;;;2.85;63.90;98607.78;5037696;28;20516;-80
2022/02/25 09:27:37;;;;;;;7.17;2.00;;;4.40;65.10;;;3.09;64.15;98609.84;5033656;28;20436;-82
2022/02/25 09:30:07;;;;;;;4.07;1.83;;;4.40;65.10;;;3.31;62.88;98612.22;5015299;28;20447;-82
2022/02/25 09:32:37;;;;;;;5.90;1.90;;;4.60;64.50;;;3.48;62.55;98597.16;5029346;28;20570;-82
2022/02/25 09:35:06;;;;;;;7.47;1.87;;;4.90;64.10;;;3.48;62.87;98603.31;5011556;28;22545;-83
2022/02/25 09:37:34;;;;;;;7.30;2.53;;;4.90;64.00;;;3.67;62.45;98599.63;5037518;28;20526;-85
2022/02/25 09:40:02;;;;;;;11.17;2.30;;;5.10;64.30;;;3.58;62.79;98591.72;5037035;28;20457;-83
2022/02/25 09:42:29;;;;;;;5.63;1.83;;;5.10;64.30;;;3.84;62.43;98615.78;5038240;28;20928;-83
2022/02/25 09:44:56;;;;;;;4.23;1.10;;;5.20;63.70;;;3.97;61.06;98608.16;5021697;28;20462;-83
2022/02/25 09:47:24;;;;;;;4.40;2.00;;;5.40;62.40;;;4.14;61.54;98610.94;5039216;28;20500;-84
2022/02/25 09:49:52;;;;;;;7.53;1.60;;;5.50;62.70;;;4.22;61.29;98610.97;5023750;28;20443;-84
2022/02/25 09:52:20;;;;;;;3.30;1.40;;;5.60;62.70;;;4.33;60.29;98601.00;5045389;28;20481;-82
2022/02/25 09:54:47;;;;;;;5.87;1.47;;;5.70;61.60;;;4.75;59.58;98600.13;5047901;28;20450;-83
2022/02/25 09:57:14;;;;;;;4.00;1.90;;;6.00;60.90;;;4.73;58.58;98595.94;5036227;28;20465;-84
2022/02/25 09:59:41;;;;;;;3.40;1.60;;;6.20;59.90;;;4.68;58.44;98599.09;5020101;28;20470;-81
2022/02/25 10:02:09;;;;;;;8.03;1.93;;;6.10;59.30;;;4.99;58.18;98598.50;5018882;28;20481;-82
2022/02/25 10:04:37;;;;;;;2.90;1.20;;;6.30;59.10;;;4.69;57.69;98603.47;5018297;28;20450;-84
2022/02/25 10:07:24;;;;;;;4.53;1.73;;;6.10;58.50;;;4.82;57.16;98611.84;5014593;28;20876;-84
2022/02/25 10:09:53;;;;;;;3.40;1.47;;;6.20;57.60;;;4.62;56.33;98605.09;5033851;28;20960;-83
2022/02/25 10:12:22;;;;;;;4.60;1.67;;;6.10;56.90;;;5.14;55.77;98605.88;5016894;28;20465;-82
2022/02/25 10:14:51;;;;;;;2.83;1.27;;;6.30;57.00;;;5.07;54.42;98544.91;5000507;28;20539;-82
2022/02/25 10:17:22;;;;;;;6.13;1.43;;;6.70;56.40;;;5.24;54.90;98614.59;5031890;28;20460;-82
2022/02/25 10:19:52;;;;;;;5.93;1.50;;;6.60;55.40;;;4.88;54.89;98590.78;5009637;28;20529;-82
2022/02/25 10:22:24;;;;;;;1.43;1.10;;;6.40;54.80;;;5.28;55.62;98591.84;5015436;28;20498;-82
2022/02/25 10:24:55;;;;;;;4.73;1.10;;;6.50;56.00;;;5.12;54.07;98599.88;4997077;28;20998;-81
2022/02/25 10:27:26;;;;;;;7.10;1.77;;;6.50;54.70;;;5.26;54.64;98607.25;5014838;28;20442;-82
2022/02/25 10:30:00;;;;;;;9.67;1.70;;;6.60;55.60;;;4.98;54.57;98618.25;5014404;28;20514;-82
2022/02/25 10:32:34;;;;;;;5.03;1.13;;;6.50;54.60;;;4.87;55.84;98599.81;5014566;28;20568;-82
2022/02/25 10:35:19;;;;;;;4.53;1.47;;;6.30;55.10;;;4.86;55.76;98611.53;4996898;28;20766;-84
2022/02/25 10:38:04;;;;;;;3.97;1.10;;;6.30;55.30;;;4.97;55.75;98608.53;5015386;28;20840;-84